Terminal Aerodrome Forecast
Issued by NWS Wilmington, NC

Home | Current Version | Previous Version | Text Only | Print | Product List | Glossary On
Versions: 1 2 3 4 5 6 7 8 9 10 11 12 13 14 15
000
FTUS42 KILM 301131
TAFMYR
TAF
KMYR 301131Z 3012/0112 19008KT P6SM VCTS SCT018 SCT035CB BKN090
      TEMPO 3012/3015 VRB15KT 5SM -TSRA BKN020CB
     FM301600 20009KT P6SM SCT035 SCT080 SCT250
     FM010200 VRB03KT P6SM FEW250=

USA.gov is the U.S. government's official web portal to all federal, state and local government web resources and services.